createdAt,value
2018-06-04T00:02:07.765Z,80.10
2018-06-04T00:04:35.968Z,79.54
2018-06-04T00:07:04.132Z,79.27
2018-06-04T00:09:32.390Z,79.57
2018-06-04T00:12:00.806Z,79.33
2018-06-04T00:14:29.117Z,79.15
2018-06-04T00:16:57.362Z,79.25
2018-06-04T00:19:25.514Z,79.58
2018-06-04T00:21:53.538Z,80.23
2018-06-04T00:24:22.372Z,79.73
2018-06-04T00:26:50.424Z,79.94
2018-06-04T00:29:18.480Z,79.88
2018-06-04T00:31:46.549Z,79.67
2018-06-04T00:34:14.583Z,79.52
2018-06-04T00:36:49.669Z,79.85
2018-06-04T00:39:17.708Z,79.82
2018-06-04T00:41:45.755Z,79.92
2018-06-04T00:44:13.934Z,80.48
2018-06-04T00:46:41.975Z,80.06
2018-06-04T00:49:10.050Z,80.66
2018-06-04T00:51:38.292Z,80.49
2018-06-04T00:54:06.505Z,80.11
2018-06-04T00:56:34.797Z,80.52
2018-06-04T00:59:02.944Z,80.50
2018-06-04T01:01:31.401Z,81.04
2018-06-04T01:03:59.429Z,80.60
2018-06-04T01:06:27.448Z,80.40
2018-06-04T01:08:55.484Z,80.32
2018-06-04T01:11:23.515Z,80.27
2018-06-04T01:13:51.591Z,80.11
2018-06-04T01:16:19.620Z,79.89
2018-06-04T01:18:47.667Z,79.78
2018-06-04T01:21:15.700Z,79.95
2018-06-04T01:23:43.723Z,79.90
2018-06-04T01:26:12.040Z,79.98
2018-06-04T01:28:40.079Z,79.97
2018-06-04T01:31:08.096Z,80.00
2018-06-04T01:33:36.212Z,80.53
2018-06-04T01:36:04.255Z,80.80
2018-06-04T01:38:32.295Z,80.52
2018-06-04T01:41:00.393Z,80.61
2018-06-04T01:43:28.427Z,80.61
2018-06-04T01:45:56.462Z,80.75
2018-06-04T01:48:24.497Z,80.79
2018-06-04T01:50:52.560Z,81.26
2018-06-04T01:53:20.616Z,82.15
2018-06-04T01:55:48.660Z,82.17
2018-06-04T01:58:16.707Z,82.48
2018-06-04T02:00:45.101Z,81.88
2018-06-04T02:03:13.304Z,81.73
2018-06-04T02:05:41.355Z,81.19
2018-06-04T02:08:09.384Z,81.10
2018-06-04T02:10:37.429Z,80.83
2018-06-04T02:13:05.469Z,80.77
2018-06-04T02:15:33.491Z,80.87
2018-06-04T02:18:01.528Z,80.79
2018-06-04T02:20:29.582Z,80.90
2018-06-04T02:22:57.640Z,80.63
2018-06-04T02:25:25.806Z,80.97
2018-06-04T02:27:53.887Z,80.44
2018-06-04T02:30:22.017Z,80.92
2018-06-04T02:32:50.140Z,81.46
2018-06-04T02:35:18.200Z,81.53
2018-06-04T02:37:46.284Z,81.47
2018-06-04T02:40:14.371Z,81.47
2018-06-04T02:42:42.424Z,81.61
2018-06-04T02:45:10.573Z,82.40
2018-06-04T02:47:38.773Z,82.65
2018-06-04T02:50:06.981Z,82.85
2018-06-04T02:52:35.254Z,81.85
2018-06-04T02:55:03.418Z,81.69
2018-06-04T02:57:31.663Z,81.76
2018-06-04T02:59:59.989Z,81.53
2018-06-04T03:02:28.154Z,81.89
2018-06-04T03:04:56.232Z,82.96
2018-06-04T03:07:24.425Z,83.20
2018-06-04T03:09:52.536Z,82.50
2018-06-04T03:12:20.588Z,82.72
2018-06-04T03:14:48.665Z,82.68
2018-06-04T03:17:16.703Z,82.60
2018-06-04T03:19:44.779Z,82.79
2018-06-04T03:22:12.839Z,83.05
2018-06-04T03:24:40.920Z,82.87
2018-06-04T03:27:08.996Z,82.46
2018-06-04T03:29:37.152Z,82.28
2018-06-04T03:32:05.314Z,81.99
2018-06-04T03:34:33.442Z,82.33
2018-06-04T03:37:01.775Z,82.17
2018-06-04T03:39:30.022Z,81.44
2018-06-04T03:41:58.249Z,81.45
2018-06-04T03:44:26.724Z,81.20
2018-06-04T03:46:54.907Z,81.19
2018-06-04T03:49:23.003Z,80.97
2018-06-04T03:51:51.107Z,80.66
2018-06-04T03:54:19.183Z,80.67
2018-06-04T03:56:47.262Z,80.28
2018-06-04T03:59:15.518Z,80.37
2018-06-04T04:01:43.585Z,80.34
2018-06-04T04:04:11.615Z,79.93
2018-06-04T04:06:39.664Z,79.63
2018-06-04T04:09:09.184Z,79.57
2018-06-04T04:11:37.252Z,79.36
2018-06-04T04:14:05.548Z,78.93
2018-06-04T04:16:33.571Z,78.46
2018-06-04T04:19:01.620Z,78.11
2018-06-04T04:21:29.668Z,77.90
2018-06-04T04:23:57.911Z,77.90
2018-06-04T04:26:25.972Z,76.01
2018-06-04T04:28:54.012Z,74.03
2018-06-04T04:31:22.316Z,73.09
2018-06-04T04:33:50.384Z,71.09
2018-06-04T04:36:18.427Z,67.47
2018-06-04T04:38:46.484Z,67.08
2018-06-04T04:41:14.543Z,64.49
2018-06-04T04:43:42.588Z,63.76
2018-06-04T04:46:10.649Z,60.79
2018-06-04T04:48:38.685Z,60.39
2018-06-04T04:51:07.053Z,60.82
2018-06-04T04:53:35.112Z,61.17
2018-06-04T04:56:03.176Z,57.15
2018-06-04T04:58:31.228Z,58.29
2018-06-04T05:00:59.269Z,56.00
2018-06-04T05:03:30.387Z,54.70
2018-06-04T05:05:58.440Z,55.37
2018-06-04T05:08:26.502Z,54.41
2018-06-04T05:10:54.943Z,55.36
2018-06-04T05:13:23.015Z,54.61
2018-06-04T05:15:51.075Z,51.08
2018-06-04T05:18:19.138Z,53.03
2018-06-04T05:20:47.172Z,49.46
2018-06-04T05:23:15.344Z,50.79
2018-06-04T05:25:43.384Z,50.74
2018-06-04T05:28:11.421Z,50.52
2018-06-04T05:30:39.485Z,49.50
2018-06-04T05:33:07.523Z,47.50
2018-06-04T05:35:35.573Z,48.54
2018-06-04T05:38:03.640Z,48.55
2018-06-04T05:40:31.695Z,45.91
2018-06-04T05:42:59.745Z,47.24
2018-06-04T05:45:27.796Z,46.74
2018-06-04T05:47:55.955Z,44.77
2018-06-04T05:50:23.983Z,45.02
2018-06-04T05:52:52.032Z,43.71
2018-06-04T05:55:20.076Z,43.29
2018-06-04T05:57:48.108Z,44.04
2018-06-04T06:00:16.199Z,42.72
2018-06-04T06:02:44.245Z,43.08
2018-06-04T06:05:12.317Z,43.13
2018-06-04T06:07:40.727Z,40.76
2018-06-04T06:10:08.776Z,41.74
2018-06-04T06:12:36.811Z,40.10
2018-06-04T06:15:04.889Z,42.56
2018-06-04T06:17:32.942Z,40.76
2018-06-04T06:20:01.068Z,41.49
2018-06-04T06:22:29.202Z,40.29
2018-06-04T06:24:57.268Z,39.54
2018-06-04T06:27:25.300Z,39.93
2018-06-04T06:29:53.348Z,39.04
2018-06-04T06:32:21.461Z,38.65
2018-06-04T06:34:49.509Z,39.21
2018-06-04T06:37:17.571Z,39.53
2018-06-04T06:39:45.665Z,37.09
2018-06-04T06:42:13.716Z,38.56
2018-06-04T06:44:43.480Z,38.00
2018-06-04T06:47:11.585Z,37.17
2018-06-04T06:49:39.645Z,38.45
2018-06-04T06:52:07.691Z,36.60
2018-06-04T06:54:35.770Z,38.23
2018-06-04T06:57:03.841Z,37.52
2018-06-04T06:59:31.908Z,37.09
2018-06-04T07:01:59.985Z,35.71
2018-06-04T07:04:28.099Z,35.62
2018-06-04T07:06:56.183Z,35.86
2018-06-04T07:09:24.637Z,36.36
2018-06-04T07:11:52.775Z,36.98
2018-06-04T07:14:20.898Z,37.32
2018-06-04T07:16:48.972Z,36.66
2018-06-04T07:19:17.012Z,37.65
2018-06-04T07:21:45.099Z,37.04
2018-06-04T07:24:13.217Z,36.44
2018-06-04T07:26:41.462Z,37.56
2018-06-04T07:29:09.440Z,36.18
2018-06-04T07:31:37.489Z,36.95
2018-06-04T07:34:06.049Z,36.27
2018-06-04T07:36:36.189Z,36.69
2018-06-04T07:39:06.613Z,36.37
2018-06-04T07:41:34.891Z,35.27
2018-06-04T07:44:02.928Z,36.50
2018-06-04T07:46:31.119Z,35.53
2018-06-04T07:48:59.196Z,34.85
2018-06-04T07:51:27.852Z,35.89
2018-06-04T07:53:56.116Z,35.25
2018-06-04T07:56:24.337Z,35.58
2018-06-04T07:58:52.401Z,35.80
2018-06-04T08:01:20.453Z,34.23
2018-06-04T08:03:48.539Z,34.76
2018-06-04T08:06:18.702Z,36.15
2018-06-04T08:08:46.695Z,37.46
2018-06-04T08:11:14.744Z,37.13
2018-06-04T08:13:42.809Z,40.94
2018-06-04T08:16:10.962Z,42.52
2018-06-04T08:18:39.339Z,41.93
2018-06-04T08:21:07.364Z,41.19
2018-06-04T08:23:35.420Z,39.92
2018-06-04T08:26:03.912Z,39.56
2018-06-04T08:28:32.080Z,38.30
2018-06-04T08:31:00.289Z,39.30
2018-06-04T08:33:28.637Z,39.48
2018-06-04T08:35:56.753Z,38.72
2018-06-04T08:38:25.476Z,40.02
2018-06-04T08:40:53.559Z,38.89
2018-06-04T08:43:21.839Z,39.16
2018-06-04T08:45:50.097Z,40.89
2018-06-04T08:48:18.257Z,43.18
2018-06-04T08:50:46.288Z,44.81
2018-06-04T08:53:14.328Z,44.31
2018-06-04T08:55:42.435Z,43.73
2018-06-04T08:58:10.545Z,42.23
2018-06-04T09:00:38.584Z,41.25
2018-06-04T09:03:06.659Z,40.21
2018-06-04T09:05:34.700Z,39.77
2018-06-04T09:08:02.900Z,41.71
2018-06-04T09:10:30.976Z,41.96
2018-06-04T09:12:59.171Z,43.07
2018-06-04T09:15:27.228Z,43.57
2018-06-04T09:17:55.276Z,44.31
2018-06-04T09:20:23.445Z,45.57
2018-06-04T09:22:51.587Z,45.30
2018-06-04T09:25:19.665Z,45.18
2018-06-04T09:27:47.764Z,44.20
2018-06-04T09:30:15.799Z,43.35
2018-06-04T09:32:44.009Z,45.01
2018-06-04T09:35:12.069Z,45.95
2018-06-04T09:37:40.273Z,46.50
2018-06-04T09:40:08.308Z,47.57
2018-06-04T09:42:36.417Z,47.19
2018-06-04T09:45:04.513Z,45.49
2018-06-04T09:47:32.721Z,43.17
2018-06-04T09:50:00.804Z,42.57
2018-06-04T09:52:29.109Z,40.91
2018-06-04T09:54:57.176Z,41.28
2018-06-04T09:57:25.223Z,41.13
2018-06-04T09:59:53.320Z,41.88
2018-06-04T10:02:21.517Z,41.06
2018-06-04T10:04:49.592Z,40.73
2018-06-04T10:07:17.638Z,41.82
2018-06-04T10:09:45.835Z,42.44
2018-06-04T10:12:14.095Z,43.46
2018-06-04T10:14:42.756Z,43.24
2018-06-04T10:17:10.817Z,43.79
2018-06-04T10:19:38.876Z,44.59
2018-06-04T10:22:06.964Z,46.28
2018-06-04T10:24:35.078Z,46.53
2018-06-04T10:27:03.344Z,46.17
2018-06-04T10:29:31.412Z,46.27
2018-06-04T10:31:59.530Z,46.60
2018-06-04T10:34:27.576Z,47.33
2018-06-04T10:36:55.644Z,48.39
2018-06-04T10:39:23.708Z,47.55
2018-06-04T10:41:51.755Z,47.28
2018-06-04T10:44:19.970Z,46.21
2018-06-04T10:46:48.012Z,46.58
2018-06-04T10:49:16.171Z,46.60
2018-06-04T10:51:44.216Z,47.62
2018-06-04T10:54:12.569Z,48.68
2018-06-04T10:56:40.620Z,49.01
2018-06-04T10:59:08.732Z,49.05
2018-06-04T11:01:36.813Z,49.96
2018-06-04T11:04:04.914Z,49.55
2018-06-04T11:06:33.053Z,49.92
2018-06-04T11:09:01.174Z,49.26
2018-06-04T11:11:29.257Z,49.21
2018-06-04T11:13:57.389Z,49.56
2018-06-04T11:16:25.497Z,48.81
2018-06-04T11:18:53.605Z,48.99
2018-06-04T11:21:21.680Z,48.44
2018-06-04T11:23:49.719Z,49.26
2018-06-04T11:26:17.792Z,50.32
2018-06-04T11:28:45.932Z,50.87
2018-06-04T11:31:13.992Z,53.55
2018-06-04T11:33:42.317Z,53.29
2018-06-04T11:36:10.380Z,53.80
2018-06-04T11:38:38.416Z,55.00
2018-06-04T11:41:06.993Z,54.46
2018-06-04T11:43:35.081Z,54.66
2018-06-04T11:46:03.174Z,54.20
2018-06-04T11:48:31.329Z,55.24
2018-06-04T11:50:59.561Z,54.78
2018-06-04T11:53:27.757Z,55.94
2018-06-04T11:55:56.200Z,55.38
2018-06-04T11:58:24.282Z,56.23
2018-06-04T12:00:52.384Z,54.97
2018-06-04T12:03:20.463Z,55.47
2018-06-04T12:05:48.630Z,54.76
2018-06-04T12:08:16.990Z,54.51
2018-06-04T12:10:45.084Z,54.79
2018-06-04T12:13:13.180Z,55.48
2018-06-04T12:15:41.296Z,55.29
2018-06-04T12:18:09.385Z,54.62
2018-06-04T12:20:37.458Z,55.52
2018-06-04T12:23:05.828Z,54.04
2018-06-04T12:25:34.272Z,54.84
2018-06-04T12:28:03.088Z,55.49
2018-06-04T12:30:31.199Z,55.47
2018-06-04T12:32:59.266Z,55.31
2018-06-04T12:35:27.431Z,55.27
2018-06-04T12:37:55.559Z,55.31
2018-06-04T12:40:23.988Z,54.18
2018-06-04T12:42:52.164Z,55.02
2018-06-04T12:45:20.248Z,55.20
2018-06-04T12:47:48.281Z,54.24
2018-06-04T12:50:16.472Z,54.59
2018-06-04T12:52:44.503Z,54.02
2018-06-04T12:55:12.888Z,53.90
2018-06-04T12:57:40.930Z,53.53
2018-06-04T13:00:09.119Z,53.48
2018-06-04T13:02:38.707Z,53.63
2018-06-04T13:05:06.740Z,54.11
2018-06-04T13:07:35.275Z,53.66
2018-06-04T13:10:03.372Z,53.80
2018-06-04T13:12:31.484Z,53.75
2018-06-04T13:14:59.531Z,54.99
2018-06-04T13:17:27.890Z,56.67
2018-06-04T13:19:56.059Z,56.26
2018-06-04T13:22:24.104Z,55.75
2018-06-04T13:24:52.197Z,54.48
2018-06-04T13:27:20.339Z,54.45
2018-06-04T13:29:48.468Z,54.34
2018-06-04T13:32:16.496Z,53.68
2018-06-04T13:34:45.363Z,52.86
2018-06-04T13:37:13.909Z,53.91
2018-06-04T13:39:41.980Z,52.52
2018-06-04T13:42:10.032Z,52.08
2018-06-04T13:44:38.246Z,50.90
2018-06-04T13:47:06.326Z,51.01
2018-06-04T13:49:34.518Z,52.06
2018-06-04T13:52:02.640Z,52.49
2018-06-04T13:54:30.813Z,52.37
2018-06-04T13:56:58.876Z,53.78
2018-06-04T13:59:28.020Z,52.81
2018-06-04T14:01:56.172Z,53.27
2018-06-04T14:04:25.803Z,53.82
2018-06-04T14:06:53.851Z,52.70
2018-06-04T14:09:21.896Z,52.31
2018-06-04T14:11:50.072Z,51.93
2018-06-04T14:14:18.119Z,52.84
2018-06-04T14:16:46.184Z,54.29
2018-06-04T14:19:14.266Z,53.82
2018-06-04T14:21:42.311Z,53.45
2018-06-04T14:24:10.379Z,55.17
2018-06-04T14:26:38.431Z,53.32
2018-06-04T14:29:06.564Z,53.49
2018-06-04T14:31:34.604Z,53.28
2018-06-04T14:34:02.681Z,52.55
2018-06-04T14:36:30.784Z,52.69
2018-06-04T14:38:59.111Z,51.99
2018-06-04T14:41:27.156Z,52.50
2018-06-04T14:43:55.250Z,51.66
2018-06-04T14:46:23.317Z,51.54
2018-06-04T14:48:51.349Z,51.67
2018-06-04T14:51:19.709Z,52.14
2018-06-04T14:53:47.795Z,52.46
2018-06-04T14:56:15.866Z,52.16
2018-06-04T14:58:43.969Z,52.04
2018-06-04T15:01:12.033Z,51.85
2018-06-04T15:03:40.143Z,52.41
2018-06-04T15:06:08.225Z,52.87
2018-06-04T15:08:36.407Z,52.56
2018-06-04T15:11:04.522Z,52.93
2018-06-04T15:13:32.660Z,53.71
2018-06-04T15:16:00.989Z,53.23
2018-06-04T15:18:29.796Z,53.07
2018-06-04T15:20:58.343Z,52.95
2018-06-04T15:23:26.489Z,52.30
2018-06-04T15:25:54.634Z,51.45
2018-06-04T15:28:22.742Z,50.70
2018-06-04T15:30:50.854Z,50.19
2018-06-04T15:33:19.177Z,50.96
2018-06-04T15:35:47.512Z,51.05
2018-06-04T15:38:15.665Z,50.42
2018-06-04T15:40:43.724Z,50.81
2018-06-04T15:43:11.856Z,51.56
2018-06-04T15:45:39.928Z,50.28
2018-06-04T15:48:08.019Z,50.70
2018-06-04T15:50:36.088Z,51.50
2018-06-04T15:53:04.150Z,51.26
2018-06-04T15:55:32.568Z,51.58
2018-06-04T15:58:00.608Z,51.07
2018-06-04T16:00:28.669Z,50.97
2018-06-04T16:02:56.721Z,51.52
2018-06-04T16:05:24.772Z,50.75
2018-06-04T16:07:52.808Z,52.37
2018-06-04T16:10:21.144Z,51.97
2018-06-04T16:12:49.199Z,52.25
2018-06-04T16:15:17.322Z,52.58
2018-06-04T16:17:45.410Z,52.62
2018-06-04T16:20:13.455Z,52.62
2018-06-04T16:22:41.488Z,52.65
2018-06-04T16:25:09.530Z,53.40
2018-06-04T16:27:37.980Z,53.49
2018-06-04T16:30:06.110Z,52.66
2018-06-04T16:32:34.240Z,52.94
2018-06-04T16:35:02.456Z,53.15
2018-06-04T16:37:30.635Z,53.21
2018-06-04T16:39:58.728Z,52.87
2018-06-04T16:42:26.788Z,53.03
2018-06-04T16:44:54.881Z,53.37
2018-06-04T16:47:22.929Z,53.97
2018-06-04T16:49:51.065Z,54.55
2018-06-04T16:52:19.169Z,53.82
2018-06-04T16:54:47.249Z,53.71
2018-06-04T16:57:15.315Z,54.49
2018-06-04T16:59:43.366Z,54.44
2018-06-04T17:02:14.001Z,55.13
2018-06-04T17:04:42.372Z,54.97
2018-06-04T17:07:10.628Z,55.45
2018-06-04T17:09:38.925Z,54.67
2018-06-04T17:12:07.185Z,55.46
2018-06-04T17:14:35.636Z,55.02
2018-06-04T17:17:04.339Z,54.57
2018-06-04T17:19:33.703Z,55.65
2018-06-04T17:22:02.547Z,55.34
2018-06-04T17:24:30.813Z,55.60
2018-06-04T17:26:58.956Z,55.78
2018-06-04T17:29:27.154Z,55.78
2018-06-04T17:31:55.833Z,55.92
2018-06-04T17:34:23.892Z,55.19
2018-06-04T17:36:54.090Z,56.02
2018-06-04T17:39:22.223Z,56.47
2018-06-04T17:41:50.291Z,56.29
2018-06-04T17:44:18.468Z,56.43
2018-06-04T17:46:46.533Z,56.96
2018-06-04T17:49:14.632Z,57.12
2018-06-04T17:51:42.911Z,56.65
2018-06-04T17:54:11.099Z,57.26
2018-06-04T17:56:39.555Z,57.62
2018-06-04T17:59:08.095Z,57.65
2018-06-04T18:01:44.151Z,57.57
2018-06-04T18:04:12.213Z,58.02
2018-06-04T18:06:40.455Z,58.30
2018-06-04T18:09:10.522Z,58.86
2018-06-04T18:11:38.643Z,58.96
2018-06-04T18:14:06.805Z,58.36
2018-06-04T18:16:35.155Z,58.71
2018-06-04T18:19:03.876Z,58.72
2018-06-04T18:21:32.247Z,58.75
2018-06-04T18:24:00.376Z,59.24
2018-06-04T18:26:29.034Z,59.52
2018-06-04T18:28:57.194Z,59.40
2018-06-04T18:31:25.301Z,59.46
2018-06-04T18:33:53.667Z,60.12
2018-06-04T18:36:21.911Z,60.47
2018-06-04T18:38:50.179Z,60.49
2018-06-04T18:41:18.469Z,60.88
2018-06-04T18:43:46.523Z,61.23
2018-06-04T18:46:14.607Z,60.81
2018-06-04T18:48:42.688Z,61.45
2018-06-04T18:51:10.792Z,62.32
2018-06-04T18:53:38.983Z,62.20
2018-06-04T18:56:07.064Z,62.40
2018-06-04T18:58:35.175Z,62.32
2018-06-04T19:01:03.334Z,63.25
2018-06-04T19:03:31.608Z,63.59
2018-06-04T19:05:59.910Z,63.47
2018-06-04T19:08:28.070Z,64.18
2018-06-04T19:10:56.168Z,64.14
2018-06-04T19:13:31.179Z,64.94
2018-06-04T19:15:59.377Z,64.79
2018-06-04T19:18:27.500Z,65.85
2018-06-04T19:20:55.713Z,66.18
2018-06-04T19:23:23.889Z,66.29
2018-06-04T19:25:52.023Z,66.63
2018-06-04T19:28:20.076Z,66.98
2018-06-04T19:30:48.220Z,66.75
2018-06-04T19:33:16.385Z,67.46
2018-06-04T19:35:44.831Z,68.60
2018-06-04T19:38:13.561Z,68.62
2018-06-04T19:40:42.188Z,68.21
2018-06-04T19:43:10.533Z,69.24
2018-06-04T19:45:38.935Z,69.18
2018-06-04T19:48:07.856Z,69.55
2018-06-04T19:50:35.991Z,69.93
2018-06-04T19:53:05.386Z,70.34
2018-06-04T19:55:34.011Z,69.87
2018-06-04T19:58:02.206Z,70.68
2018-06-04T20:00:30.408Z,70.45
2018-06-04T20:02:59.294Z,70.79
2018-06-04T20:05:27.359Z,70.50
2018-06-04T20:07:55.515Z,70.59
2018-06-04T20:10:23.570Z,71.20
2018-06-04T20:12:51.887Z,71.26
2018-06-04T20:15:20.215Z,71.08
2018-06-04T20:17:48.424Z,71.46
2018-06-04T20:20:16.519Z,71.51
2018-06-04T20:22:44.715Z,71.75
2018-06-04T20:25:12.783Z,72.23
2018-06-04T20:27:40.827Z,72.39
2018-06-04T20:30:08.900Z,72.53
2018-06-04T20:32:36.963Z,72.66
2018-06-04T20:35:05.118Z,72.83
2018-06-04T20:37:33.515Z,72.85
2018-06-04T20:40:01.579Z,73.07
2018-06-04T20:42:29.687Z,73.21
2018-06-04T20:44:57.788Z,73.54
2018-06-04T20:47:25.835Z,73.88
2018-06-04T20:49:53.916Z,73.91
2018-06-04T20:52:21.971Z,74.12
2018-06-04T20:54:50.032Z,74.54
2018-06-04T20:57:18.097Z,74.54
2018-06-04T20:59:46.147Z,74.35
2018-06-04T21:02:14.198Z,74.35
2018-06-04T21:04:42.256Z,74.87
2018-06-04T21:07:11.456Z,74.76
2018-06-04T21:09:39.553Z,74.90
2018-06-04T21:12:07.632Z,75.14
2018-06-04T21:14:35.753Z,75.27
2018-06-04T21:17:03.839Z,75.73
2018-06-04T21:19:31.996Z,75.79
2018-06-04T21:22:00.067Z,75.47
2018-06-04T21:24:28.183Z,76.09
2018-06-04T21:26:56.304Z,75.98
2018-06-04T21:29:24.381Z,75.18
2018-06-04T21:31:52.436Z,75.56
2018-06-04T21:34:20.506Z,75.56
2018-06-04T21:36:48.574Z,75.57
2018-06-04T21:39:16.952Z,76.69
2018-06-04T21:41:45.007Z,76.20
2018-06-04T21:44:13.084Z,75.40
2018-06-04T21:46:41.531Z,76.32
2018-06-04T21:49:10.140Z,76.23
2018-06-04T21:51:38.245Z,76.46
2018-06-04T21:54:06.471Z,76.66
2018-06-04T21:56:34.705Z,76.67
2018-06-04T21:59:02.855Z,75.68
2018-06-04T22:01:30.919Z,75.51
2018-06-04T22:03:58.972Z,75.25
2018-06-04T22:06:27.011Z,75.92
2018-06-04T22:08:55.054Z,76.66
2018-06-04T22:11:23.115Z,76.67
2018-06-04T22:13:51.215Z,75.62
2018-06-04T22:16:19.248Z,75.67
2018-06-04T22:18:47.307Z,75.37
2018-06-04T22:21:15.370Z,75.60
2018-06-04T22:23:43.427Z,75.01
2018-06-04T22:26:11.477Z,75.40
2018-06-04T22:28:39.795Z,75.08
2018-06-04T22:31:07.839Z,74.74
2018-06-04T22:33:35.911Z,75.22
2018-06-04T22:36:04.191Z,75.15
2018-06-04T22:38:32.420Z,75.79
2018-06-04T22:41:00.472Z,75.60
2018-06-04T22:43:28.549Z,75.57
2018-06-04T22:45:56.587Z,75.42
2018-06-04T22:48:24.631Z,75.35
2018-06-04T22:50:52.688Z,75.46
2018-06-04T22:53:20.751Z,75.09
2018-06-04T22:55:48.822Z,74.95
2018-06-04T22:58:16.886Z,75.22
2018-06-04T23:00:44.924Z,75.51
2018-06-04T23:03:12.984Z,75.64
2018-06-04T23:05:41.035Z,74.77
2018-06-04T23:08:09.082Z,75.49
2018-06-04T23:10:37.151Z,75.30
2018-06-04T23:13:05.199Z,75.26
2018-06-04T23:15:33.267Z,75.42
2018-06-04T23:18:01.355Z,75.25
2018-06-04T23:20:29.693Z,75.73
2018-06-04T23:22:57.780Z,75.38
2018-06-04T23:25:25.838Z,75.62
2018-06-04T23:27:53.977Z,75.19
2018-06-04T23:30:22.086Z,75.66
2018-06-04T23:32:50.181Z,74.78
2018-06-04T23:35:18.552Z,74.96
2018-06-04T23:37:46.611Z,75.44
2018-06-04T23:40:14.647Z,74.66
2018-06-04T23:42:42.722Z,75.05
2018-06-04T23:45:10.763Z,74.97
2018-06-04T23:47:38.835Z,75.18
2018-06-04T23:50:07.019Z,75.72
2018-06-04T23:52:35.114Z,75.44
2018-06-04T23:55:03.572Z,75.36
2018-06-04T23:57:31.821Z,75.76
2018-06-04T23:59:59.986Z,75.84
